Time;durP1;ratioP1;P1;durP2;ratioP2;P2;SDS_P1;SDS_P2;PMS_P1;PMS_P2;Temp;Humidity;BMP_temperature;BMP_pressure;BME280_temperature;BME280_humidity;BME280_pressure;Samples;Min_cycle;Max_cycle;Signal;HPM_P1;HPM_P2
2021/10/07 00:02:30;;;;;;;13.58;9.33;;;;;;;15.17;94.81;100940.53;2916476;81;21079;-60
2021/10/07 00:06:31;;;;;;;10.20;8.48;;;;;;;15.16;95.38;100952.25;2916725;81;20976;-60
2021/10/07 00:10:33;;;;;;;13.65;9.23;;;;;;;15.24;95.78;100948.87;2978602;80;21024;-61
2021/10/07 00:14:39;;;;;;;12.47;9.45;;;;;;;15.31;95.46;100949.98;2916670;81;21061;-60
2021/10/07 00:18:41;;;;;;;14.87;9.50;;;;;;;15.30;94.86;100951.45;2916494;81;21032;-61
2021/10/07 00:22:45;;;;;;;15.10;9.20;;;;;;;15.26;94.83;100950.41;2916567;81;20944;-60
2021/10/07 00:27:11;;;;;;;13.03;8.80;;;;;;;15.11;94.58;100950.45;2863792;83;21008;-60
2021/10/07 00:31:19;;;;;;;23.13;9.47;;;;;;;14.99;95.45;100954.61;2864303;83;21032;-60
2021/10/07 00:39:22;;;;;;;;;;;;;;;14.84;95.82;100939.91;2866680;83;20996;-60
2021/10/07 00:43:27;;;;;;;11.25;9.98;;;;;;;14.75;96.38;100944.77;2978935;80;20064;-59
2021/10/07 00:47:28;;;;;;;13.10;9.88;;;;;;;14.71;96.63;100945.53;2916603;78;20957;-60
2021/10/07 00:51:30;;;;;;;18.32;9.63;;;;;;;14.74;96.76;100951.08;2916326;81;20981;-60
2021/10/07 00:55:36;;;;;;;11.08;9.05;;;;;;;14.78;96.11;100948.52;2917072;81;21059;-60
2021/10/07 00:59:46;;;;;;;12.35;9.38;;;;;;;14.77;96.14;100948.16;2916889;79;20983;-60
2021/10/07 01:03:48;;;;;;;12.10;9.78;;;;;;;14.82;96.37;100952.60;2916655;81;20989;-61
2021/10/07 01:07:51;;;;;;;15.78;9.45;;;;;;;14.83;96.16;100963.16;2916950;81;20932;-60
2021/10/07 01:11:53;;;;;;;12.58;10.90;;;;;;;14.82;96.34;100955.28;2864195;83;21083;-61
2021/10/07 01:16:05;;;;;;;15.98;9.60;;;;;;;14.80;96.28;100955.91;2864125;83;21016;-61
2021/10/07 01:20:09;;;;;;;9.78;8.48;;;;;;;14.90;96.79;100961.30;2979219;80;20980;-60
2021/10/07 01:24:12;;;;;;;14.13;9.75;;;;;;;14.91;96.05;100952.27;2979087;78;21039;-61
2021/10/07 01:28:14;;;;;;;13.15;10.20;;;;;;;14.97;96.14;100958.41;2978750;80;20980;-61
2021/10/07 01:32:39;;;;;;;11.90;9.53;;;;;;;14.97;95.49;100963.28;2978919;80;21031;-60
2021/10/07 01:36:42;;;;;;;10.53;8.93;;;;;;;14.97;95.57;100964.62;2979192;80;21007;-59
2021/10/07 01:40:44;;;;;;;15.32;9.00;;;;;;;14.95;95.12;100963.92;2999561;77;20955;-61
2021/10/07 01:44:46;;;;;;;12.50;8.58;;;;;;;14.91;94.96;100971.85;3065750;76;20956;-60
2021/10/07 01:48:52;;;;;;;10.08;8.15;;;;;;;14.84;95.03;100969.37;3060680;76;21023;-61
2021/10/07 01:52:53;;;;;;;10.98;8.20;;;;;;;14.82;94.53;100967.33;3065692;77;21019;-59
2021/10/07 01:56:55;;;;;;;14.58;9.33;;;;;;;14.79;94.51;100967.10;3060744;77;21010;-61
2021/10/07 02:00:57;;;;;;;11.40;7.95;;;;;;;14.80;94.88;100977.34;3065991;77;20967;-60
2021/10/07 02:04:59;;;;;;;12.85;8.60;;;;;;;14.78;94.88;100977.97;3060791;78;20979;-60
2021/10/07 02:09:01;;;;;;;12.60;7.80;;;;;;;14.70;95.19;100981.30;3066301;77;20983;-60
2021/10/07 02:13:09;;;;;;;9.43;8.20;;;;;;;14.70;95.33;100986.14;3060886;78;20991;-60
2021/10/07 02:17:11;;;;;;;15.25;8.98;;;;;;;14.70;94.79;100990.66;3066261;77;20951;-60
2021/10/07 02:22:00;;;;;;;14.45;7.30;;;;;;;14.73;95.54;100993.58;3061291;76;21026;-59
2021/10/07 02:26:03;;;;;;;12.05;8.68;;;;;;;14.66;94.74;100999.45;3065995;77;20967;-60
2021/10/07 02:30:14;;;;;;;14.70;9.65;;;;;;;14.55;95.05;100996.89;3066187;77;21047;-61
2021/10/07 02:34:15;;;;;;;14.85;10.93;;;;;;;14.47;95.51;101002.05;3065736;77;20968;-60
2021/10/07 02:38:17;;;;;;;16.65;11.78;;;;;;;14.44;95.81;101013.86;3061006;77;21027;-60
2021/10/07 02:42:21;;;;;;;22.85;10.43;;;;;;;14.36;95.96;101022.58;3065974;76;21042;-60
2021/10/07 02:46:23;;;;;;;12.55;10.00;;;;;;;14.28;96.09;101025.05;3065890;77;20944;-60
2021/10/07 02:50:27;;;;;;;13.93;9.53;;;;;;;14.27;96.31;101028.70;3060786;78;21007;-60
2021/10/07 02:54:29;;;;;;;12.23;7.72;;;;;;;14.25;95.69;101032.88;3066045;77;20977;-61
2021/10/07 02:58:32;;;;;;;11.60;8.33;;;;;;;14.14;95.47;101040.45;3042695;76;21011;-60
2021/10/07 03:02:34;;;;;;;10.00;8.60;;;;;;;14.00;95.90;101036.78;3012898;78;20940;-60
2021/10/07 03:07:17;;;;;;;9.98;7.17;;;;;;;13.91;96.45;101040.22;3013131;78;20991;-60
2021/10/07 03:11:19;;;;;;;14.65;7.22;;;;;;;13.84;96.32;101042.08;3013051;78;21027;-62
2021/10/07 03:15:34;;;;;;;13.28;7.87;;;;;;;13.84;96.82;101045.23;3013037;79;20980;-59
2021/10/07 03:19:36;;;;;;;12.50;7.83;;;;;;;13.89;96.29;101051.06;3013057;75;20945;-58
2021/10/07 03:23:38;;;;;;;11.90;7.97;;;;;;;13.89;95.61;101058.22;3013290;79;20980;-58
2021/10/07 03:27:40;;;;;;;11.28;7.55;;;;;;;13.84;95.28;101055.92;3013124;79;20968;-57
2021/10/07 03:31:47;;;;;;;11.00;7.15;;;;;;;13.76;94.60;101055.73;3013316;79;20964;-57
2021/10/07 03:35:49;;;;;;;13.75;8.15;;;;;;;13.59;94.08;101067.83;3000177;76;20983;-59
2021/10/07 03:39:50;;;;;;;9.23;7.05;;;;;;;13.41;94.11;101063.81;3013107;79;20937;-58
2021/10/07 03:43:52;;;;;;;11.65;8.00;;;;;;;13.22;95.08;101068.48;3013295;78;21226;-56
2021/10/07 03:47:54;;;;;;;10.28;7.30;;;;;;;13.04;95.77;101065.45;3013271;78;20921;-56
2021/10/07 03:51:56;;;;;;;9.30;7.65;;;;;;;12.94;96.23;101072.02;3013261;78;20936;-58
2021/10/07 03:55:58;;;;;;;15.00;8.93;;;;;;;12.83;96.84;101079.55;3013265;78;20960;-56
2021/10/07 04:00:00;;;;;;;10.03;7.40;;;;;;;12.89;97.52;101090.23;3053479;76;20975;-57
2021/10/07 04:04:05;;;;;;;8.15;6.60;;;;;;;12.93;97.15;101082.84;3080212;77;20959;-57
2021/10/07 04:08:07;;;;;;;11.65;8.88;;;;;;;12.88;97.01;101085.03;3075705;77;20944;-57
2021/10/07 04:12:19;;;;;;;13.15;7.90;;;;;;;12.83;98.00;101092.89;3080451;77;20959;-58
2021/10/07 04:16:20;;;;;;;9.50;7.70;;;;;;;12.82;98.24;101091.20;3075461;77;20987;-57
2021/10/07 04:20:23;;;;;;;10.98;7.75;;;;;;;12.84;98.18;101096.42;3079508;77;21252;-58
2021/10/07 04:24:25;;;;;;;13.13;9.55;;;;;;;12.86;98.76;101099.32;3075474;76;20993;-57
2021/10/07 04:28:27;;;;;;;11.68;8.73;;;;;;;12.97;99.04;101105.18;3080197;77;20975;-56
2021/10/07 04:32:29;;;;;;;11.60;7.58;;;;;;;13.06;98.74;101100.06;3080247;77;21006;-57
2021/10/07 04:36:34;;;;;;;13.25;8.10;;;;;;;13.05;98.30;101103.20;3075428;77;20932;-56
2021/10/07 04:40:36;;;;;;;14.03;9.50;;;;;;;13.00;98.26;101111.61;3080625;76;20963;-56
2021/10/07 04:45:00;;;;;;;9.95;7.08;;;;;;;12.93;98.65;101114.38;3075950;76;21010;-57
2021/10/07 04:49:02;;;;;;;14.20;7.05;;;;;;;12.90;99.17;101115.96;3080224;76;21038;-57
2021/10/07 04:53:04;;;;;;;9.50;6.12;;;;;;;12.87;98.94;101118.87;3080174;77;21002;-57
2021/10/07 04:57:06;;;;;;;8.38;7.17;;;;;;;12.83;98.97;101118.26;3080082;77;20998;-57
2021/10/07 05:01:08;;;;;;;12.18;6.90;;;;;;;12.81;99.03;101134.05;3022790;76;20953;-57
2021/10/07 05:05:10;;;;;;;11.55;7.67;;;;;;;12.78;98.87;101133.80;3013437;75;20913;-56
2021/10/07 05:09:12;;;;;;;16.60;7.95;;;;;;;12.76;99.17;101133.06;3013327;78;20987;-57
2021/10/07 05:13:23;;;;;;;9.68;7.50;;;;;;;12.73;99.19;101133.78;3013189;79;20960;-57
2021/10/07 05:17:25;;;;;;;11.83;7.05;;;;;;;12.66;98.97;101140.08;3013230;75;20963;-56
2021/10/07 05:21:28;;;;;;;16.25;8.08;;;;;;;12.57;98.99;101140.30;3013466;78;20960;-56
2021/10/07 05:25:30;;;;;;;9.30;7.67;;;;;;;12.48;98.87;101149.02;3013242;79;20991;-56
2021/10/07 05:29:32;;;;;;;11.15;8.53;;;;;;;12.41;98.81;101150.83;3013258;78;20932;-56
2021/10/07 05:33:34;;;;;;;10.10;8.13;;;;;;;12.34;98.74;101157.58;3013541;75;21027;-56
2021/10/07 05:37:36;;;;;;;21.00;9.83;;;;;;;12.32;98.49;101157.35;3012929;75;21039;-57
2021/10/07 05:41:38;;;;;;;12.58;8.55;;;;;;;12.23;98.34;101157.06;3013097;76;20909;-57
2021/10/07 05:45:42;;;;;;;11.95;7.05;;;;;;;12.17;98.23;101154.86;3013411;78;20991;-57
2021/10/07 05:49:43;;;;;;;9.10;6.42;;;;;;;12.08;98.34;101153.73;3013172;78;20967;-57
2021/10/07 05:53:45;;;;;;;10.80;7.10;;;;;;;12.04;98.39;101157.59;3013262;75;21026;-56
2021/10/07 05:57:47;;;;;;;7.30;6.58;;;;;;;12.01;98.69;101161.83;3013279;78;20937;-57
2021/10/07 06:01:50;;;;;;;7.35;5.87;;;;;;;11.99;98.66;101163.73;3015235;76;21003;-57
2021/10/07 06:05:52;;;;;;;6.62;6.03;;;;;;;11.98;98.86;101170.00;3013140;78;20948;-57
2021/10/07 06:09:54;;;;;;;9.25;6.03;;;;;;;12.10;99.50;101169.13;3013401;79;21219;-57
2021/10/07 06:13:58;;;;;;;11.88;6.33;;;;;;;12.35;99.33;101175.79;3013265;78;21450;-58
2021/10/07 06:18:02;;;;;;;10.35;7.37;;;;;;;12.55;98.65;101178.27;3013366;76;21035;-57
2021/10/07 06:22:07;;;;;;;6.80;5.97;;;;;;;12.75;98.49;101184.77;3013427;78;20968;-57
2021/10/07 06:26:09;;;;;;;8.78;6.72;;;;;;;12.94;97.39;101189.52;3013424;79;20975;-57
2021/10/07 06:30:11;;;;;;;8.23;6.70;;;;;;;13.12;97.41;101191.72;3013028;79;20960;-61
2021/10/07 06:34:18;;;;;;;9.68;6.62;;;;;;;13.38;96.92;101191.00;3012873;79;21391;-57
2021/10/07 06:38:20;;;;;;;6.87;6.05;;;;;;;13.64;95.41;101192.59;3013074;79;20996;-56
2021/10/07 06:42:22;;;;;;;9.10;7.47;;;;;;;13.82;94.85;101197.80;3013263;79;21023;-57
2021/10/07 06:46:27;;;;;;;10.20;7.53;;;;;;;14.04;93.86;101196.52;3012752;77;21011;-58
2021/10/07 06:50:29;;;;;;;10.38;7.47;;;;;;;14.20;92.59;101204.14;3012802;79;20959;-57
2021/10/07 06:54:40;;;;;;;15.13;8.65;;;;;;;14.30;91.86;101214.42;3013045;79;20991;-57
2021/10/07 06:58:42;;;;;;;10.58;7.90;;;;;;;14.38;91.21;101216.00;3013121;79;21022;-57
2021/10/07 07:02:44;;;;;;;12.30;7.65;;;;;;;14.46;90.21;101222.05;3012868;79;20948;-57
2021/10/07 07:06:47;;;;;;;7.58;6.87;;;;;;;14.57;90.14;101219.81;3013055;79;21070;-56
2021/10/07 07:10:49;;;;;;;7.70;6.55;;;;;;;14.66;90.14;101224.38;3013320;79;20971;-58
2021/10/07 07:14:51;;;;;;;8.63;6.08;;;;;;;14.87;90.15;101230.25;3013048;77;21003;-56
2021/10/07 07:19:03;;;;;;;6.87;5.12;;;;;;;15.12;90.37;101230.34;3013351;77;21023;-56
2021/10/07 07:23:11;;;;;;;8.65;5.30;;;;;;;15.34;87.84;101226.30;3013457;79;21054;-57
2021/10/07 07:27:14;;;;;;;8.28;5.65;;;;;;;15.50;88.07;101227.97;3012977;79;20959;-57
2021/10/07 07:31:38;;;;;;;7.05;4.90;;;;;;;15.69;87.29;101229.02;3012782;79;20976;-58
2021/10/07 07:35:39;;;;;;;6.55;5.25;;;;;;;15.82;85.94;101231.45;3013239;79;20971;-57
2021/10/07 07:39:45;;;;;;;6.45;5.72;;;;;;;15.88;85.95;101224.70;3011041;76;21019;-58
2021/10/07 07:43:48;;;;;;;7.47;5.60;;;;;;;16.01;86.44;101233.37;3011523;76;21209;-58
2021/10/07 07:47:50;;;;;;;6.60;5.60;;;;;;;16.10;85.46;101233.87;3010950;76;21038;-57
2021/10/07 07:51:52;;;;;;;6.83;6.08;;;;;;;16.08;86.02;101239.88;3012720;79;20991;-56
2021/10/07 07:55:54;;;;;;;6.70;5.50;;;;;;;16.19;86.50;101243.44;3012784;79;21030;-59
2021/10/07 08:21:53;;;;;;;8.03;5.65;;;;;;;16.44;87.71;101250.59;3027552;77;21012;-56
2021/10/07 08:25:55;;;;;;;10.85;6.83;;;;;;;16.54;86.66;101256.83;3033012;77;21078;-56
2021/10/07 08:29:57;;;;;;;8.95;5.83;;;;;;;16.54;86.32;101259.52;3033213;77;21043;-56
2021/10/07 08:33:58;;;;;;;8.85;6.95;;;;;;;16.57;86.56;101267.28;3032999;78;21024;-56
2021/10/07 08:38:06;;;;;;;9.13;6.62;;;;;;;16.62;85.99;101274.41;3033260;78;20941;-57
2021/10/07 08:42:07;;;;;;;8.08;6.17;;;;;;;16.67;86.86;101261.91;3032535;77;20980;-60
2021/10/07 08:46:11;;;;;;;8.23;5.70;;;;;;;16.61;85.54;101267.86;3033055;78;21023;-59
2021/10/07 08:50:38;;;;;;;7.60;5.72;;;;;;;16.61;86.13;101267.86;3033085;77;21000;-58
2021/10/07 08:54:39;;;;;;;6.15;5.65;;;;;;;16.62;85.99;101262.84;3033039;77;20979;-56
2021/10/07 08:58:41;;;;;;;6.78;5.97;;;;;;;16.70;85.88;101261.62;3033241;77;20933;-56
2021/10/07 09:03:37;;;;;;;6.62;5.83;;;;;;;16.85;86.38;101264.70;3032719;77;20977;-56
2021/10/07 09:08:11;;;;;;;14.80;7.60;;;;;;;17.07;86.27;101268.96;3007077;78;20956;-57
2021/10/07 09:12:48;;;;;;;10.18;7.35;;;;;;;17.33;85.68;101268.83;3022823;77;21051;-58
2021/10/07 09:17:12;;;;;;;11.08;8.23;;;;;;;17.37;85.07;101269.72;3027783;77;20985;-58
2021/10/07 09:21:51;;;;;;;7.25;6.35;;;;;;;17.38;84.66;101270.58;3025827;77;20959;-58
2021/10/07 09:26:18;;;;;;;7.80;6.70;;;;;;;17.35;85.10;101279.77;3016649;79;20989;-58
2021/10/07 09:31:10;;;;;;;11.25;6.55;;;;;;;17.31;84.74;101276.20;3017748;79;20984;-58
2021/10/07 09:35:28;;;;;;;11.15;6.80;;;;;;;17.28;85.15;101270.09;3017946;76;21033;-59
2021/10/07 09:40:44;;;;;;;8.15;7.25;;;;;;;17.38;84.88;101274.61;3014543;79;21026;-58
2021/10/07 09:45:30;;;;;;;9.90;8.93;;;;;;;17.41;84.52;101272.97;3007754;77;21069;-58
2021/10/07 09:50:22;;;;;;;;;;;;;;;;;;;;;
2021/10/07 09:54:35;;;;;;;12.25;9.58;;;;;;;17.36;84.95;101271.22;3009597;77;20938;-59
2021/10/07 09:59:07;;;;;;;16.80;12.85;;;;;;;17.37;85.64;101276.95;3016723;79;21812;-59
2021/10/07 10:03:31;;;;;;;14.38;12.55;;;;;;;17.27;84.90;101283.70;3002503;79;21006;-58
2021/10/07 10:13:25;;;;;;;14.68;12.03;;;;;;;17.11;85.56;101284.31;2987616;76;20983;-57
2021/10/07 10:17:52;;;;;;;14.23;9.03;;;;;;;17.09;86.22;101276.86;3010167;76;22103;-58
2021/10/07 10:22:06;;;;;;;11.10;9.15;;;;;;;17.11;86.18;101280.28;3022313;77;20962;-59
2021/10/07 10:26:27;;;;;;;12.75;10.18;;;;;;;17.25;86.66;101274.94;2997407;78;20978;-58
2021/10/07 10:31:16;;;;;;;16.30;10.63;;;;;;;17.37;86.30;101274.27;2972282;78;20938;-58
2021/10/07 10:35:38;;;;;;;14.73;13.00;;;;;;;17.45;86.10;101278.40;3047380;76;20996;-59
2021/10/07 10:39:47;;;;;;;16.95;13.13;;;;;;;17.44;86.22;101278.56;2969342;77;20979;-57
2021/10/07 10:43:49;;;;;;;21.77;15.15;;;;;;;17.40;86.69;101287.41;2942883;81;21024;-57
2021/10/07 10:47:52;;;;;;;23.95;16.45;;;;;;;17.40;87.28;101292.79;2942100;81;20988;-57
2021/10/07 10:51:54;;;;;;;29.95;17.73;;;;;;;17.37;87.46;101298.47;2942697;81;21051;-58
2021/10/07 10:55:57;;;;;;;31.07;20.23;;;;;;;17.36;87.41;101296.26;2942825;81;20980;-57
2021/10/07 11:00:43;;;;;;;29.52;19.60;;;;;;;17.33;87.85;101305.97;2942757;81;20956;-57
2021/10/07 11:04:47;;;;;;;27.27;19.67;;;;;;;17.27;87.84;101313.28;2942907;80;21004;-56
2021/10/07 11:09:00;;;;;;;23.55;17.45;;;;;;;17.16;88.15;101314.77;2942518;81;20980;-57
2021/10/07 11:13:01;;;;;;;24.60;17.75;;;;;;;17.10;88.37;101313.53;2942642;79;20948;-57
2021/10/07 11:17:29;;;;;;;33.78;19.77;;;;;;;17.07;89.10;101317.34;2942623;81;21028;-58
2021/10/07 11:21:31;;;;;;;25.62;19.52;;;;;;;17.04;88.80;101316.29;2941371;81;20976;-58
2021/10/07 11:25:37;;;;;;;25.02;17.48;;;;;;;17.05;89.04;101319.33;2944814;79;21015;-58
2021/10/07 11:29:39;;;;;;;28.57;19.17;;;;;;;17.06;88.33;101318.81;2946969;78;20988;-58
2021/10/07 11:33:58;;;;;;;36.45;23.22;;;;;;;16.99;88.27;101319.88;2946958;81;21075;-58
2021/10/07 11:38:39;;;;;;;36.08;24.05;;;;;;;16.92;87.99;101322.77;2946965;81;20992;-59
2021/10/07 11:42:41;;;;;;;38.08;25.80;;;;;;;16.80;88.85;101320.23;2947069;79;20936;-57
2021/10/07 11:46:45;;;;;;;46.58;28.52;;;;;;;16.69;89.02;101326.57;2946983;81;20987;-58
2021/10/07 11:55:21;;;;;;;47.88;27.65;;;;;;;16.61;90.09;101323.75;2946684;81;21031;-57
2021/10/07 11:59:23;;;;;;;45.15;31.68;;;;;;;16.58;90.46;101324.03;2947040;81;20972;-57
2021/10/07 12:03:34;;;;;;;45.75;27.52;;;;;;;16.50;89.99;101321.18;2946829;81;20995;-57
2021/10/07 12:08:09;;;;;;;44.03;28.02;;;;;;;16.46;90.64;101322.45;2946471;80;21011;-57
2021/10/07 12:12:11;;;;;;;42.93;27.20;;;;;;;16.49;91.37;101326.20;2946764;78;20992;-58
2021/10/07 12:16:21;;;;;;;38.13;26.20;;;;;;;16.57;92.10;101326.37;2946578;81;20984;-57
2021/10/07 12:20:22;;;;;;;37.00;25.80;;;;;;;16.63;91.91;101328.48;2946531;81;21011;-58
2021/10/07 12:24:27;;;;;;;39.13;26.82;;;;;;;16.71;91.71;101331.81;2946665;79;20997;-57
2021/10/07 12:28:30;;;;;;;38.00;28.33;;;;;;;16.69;90.49;101326.57;2946731;81;21019;-57
2021/10/07 12:32:45;;;;;;;45.95;32.13;;;;;;;16.69;91.12;101326.57;2946535;81;20991;-57
2021/10/07 12:36:53;;;;;;;42.67;30.92;;;;;;;16.67;90.68;101328.55;2946852;81;20999;-57
2021/10/07 12:41:33;;;;;;;44.48;30.88;;;;;;;16.67;90.84;101331.23;2946621;78;20977;-59
2021/10/07 12:59:02;;;;;;;47.23;33.75;;;;;;;16.98;89.47;101328.45;2939613;80;22840;-60
2021/10/07 13:03:19;;;;;;;46.28;32.13;;;;;;;16.94;89.30;101329.70;2874938;83;21058;-60
2021/10/07 13:30:21;;;;;;;67.75;43.87;;;;;;;17.28;87.72;101333.28;3011239;77;22970;-70
2021/10/07 13:34:22;;;;;;;82.00;47.50;;;;;;;17.16;87.82;101335.80;2962960;80;21097;-70
2021/10/07 13:38:24;;;;;;;64.55;42.70;;;;;;;17.06;87.82;101345.70;2958138;80;21019;-70
2021/10/07 13:42:26;;;;;;;64.05;42.90;;;;;;;16.96;88.44;101345.19;2957974;80;21031;-70
2021/10/07 13:46:32;;;;;;;63.58;42.10;;;;;;;16.91;88.74;101346.59;2995440;78;21576;-73
2021/10/07 13:50:33;;;;;;;62.33;40.28;;;;;;;16.84;89.52;101346.31;3019213;78;20983;-77
2021/10/07 13:54:36;;;;;;;62.85;40.25;;;;;;;16.81;89.50;101350.62;2907079;82;21043;-77
2021/10/07 13:58:38;;;;;;;55.35;38.20;;;;;;;16.77;89.79;101354.59;2912685;81;20998;-78
2021/10/07 14:02:39;;;;;;;57.53;40.65;;;;;;;16.73;89.90;101359.38;2958784;80;21005;-78
2021/10/07 14:06:41;;;;;;;59.95;43.00;;;;;;;16.67;90.03;101359.45;2958375;80;20972;-77
2021/10/07 14:10:43;;;;;;;64.22;41.15;;;;;;;16.61;90.35;101365.38;2958395;80;21064;-79
2021/10/07 14:14:45;;;;;;;63.33;41.20;;;;;;;16.59;91.02;101367.36;2958744;80;21028;-77
2021/10/07 14:18:47;;;;;;;64.30;42.70;;;;;;;16.58;90.80;101366.14;2958551;80;20969;-79
2021/10/07 14:22:49;;;;;;;76.10;46.28;;;;;;;16.58;91.09;101368.83;2958336;80;21025;-80
2021/10/07 14:26:50;;;;;;;65.37;42.60;;;;;;;16.58;91.40;101372.37;2959532;80;20966;-75
2021/10/07 14:30:53;;;;;;;60.30;41.63;;;;;;;16.58;91.38;101367.01;2972072;80;21044;-77
2021/10/07 14:34:55;;;;;;;55.08;38.35;;;;;;;16.59;91.56;101376.77;2971871;80;21094;-79
2021/10/07 14:38:56;;;;;;;56.88;39.60;;;;;;;16.55;91.82;101369.98;2971776;79;21008;-78
2021/10/07 14:42:59;;;;;;;59.83;39.27;;;;;;;16.56;91.91;101367.64;2971961;80;20973;-78
2021/10/07 14:47:01;;;;;;;58.68;41.48;;;;;;;16.60;92.07;101380.28;2971859;80;21114;-78
2021/10/07 14:51:03;;;;;;;59.67;41.35;;;;;;;16.63;91.80;101382.72;2971964;80;21007;-78
2021/10/07 14:55:11;;;;;;;59.95;39.55;;;;;;;16.66;91.90;101382.44;2971716;80;20989;-79
2021/10/07 14:59:12;;;;;;;62.98;41.33;;;;;;;16.70;91.51;101388.74;2972129;80;21075;-77
2021/10/07 15:03:14;;;;;;;64.10;43.08;;;;;;;16.65;91.32;101392.31;2972012;80;20999;-78
2021/10/07 15:07:16;;;;;;;60.38;40.83;;;;;;;16.61;91.13;101390.91;2971690;80;21059;-78
2021/10/07 15:11:18;;;;;;;72.50;47.50;;;;;;;16.55;91.45;101401.70;2970853;80;21975;-77
2021/10/07 15:15:20;;;;;;;65.87;45.65;;;;;;;16.46;92.11;101397.64;2970340;80;21075;-78
2021/10/07 15:19:21;;;;;;;66.53;45.65;;;;;;;16.39;92.57;101401.36;2970176;80;21059;-78
2021/10/07 15:23:23;;;;;;;64.97;44.75;;;;;;;16.32;93.12;101409.63;2970368;80;20988;-79
2021/10/07 15:27:25;;;;;;;60.33;40.92;;;;;;;16.26;93.71;101406.98;2971253;80;21056;-78
2021/10/07 15:31:27;;;;;;;56.28;40.88;;;;;;;16.23;94.02;101405.91;2972374;80;20977;-78
2021/10/07 15:35:28;;;;;;;64.50;42.38;;;;;;;16.20;94.50;101405.68;2972247;80;20961;-78
2021/10/07 15:39:30;;;;;;;60.23;42.65;;;;;;;16.22;94.79;101406.42;2972113;80;21028;-79
2021/10/07 15:43:31;;;;;;;63.90;41.98;;;;;;;16.21;94.52;101403.86;2971032;79;21034;-79
2021/10/07 15:47:33;;;;;;;73.05;43.78;;;;;;;16.20;94.63;101404.34;2970466;80;21588;-78
2021/10/07 15:51:34;;;;;;;60.52;42.13;;;;;;;16.23;94.65;101409.94;2970548;80;21000;-79
2021/10/07 15:55:36;;;;;;;69.62;45.75;;;;;;;16.24;94.36;101411.64;2970324;80;21671;-78
2021/10/07 15:59:37;;;;;;;58.28;41.65;;;;;;;16.21;94.29;101410.57;2970479;80;21000;-80
2021/10/07 16:03:39;;;;;;;61.77;41.48;;;;;;;16.22;94.44;101421.19;2970617;80;21044;-77
2021/10/07 16:07:41;;;;;;;65.25;43.28;;;;;;;16.18;94.08;101417.56;2970697;80;21007;-80
2021/10/07 16:11:43;;;;;;;65.87;45.28;;;;;;;16.17;94.36;101431.45;2971011;80;21028;-80
2021/10/07 16:15:44;;;;;;;58.13;41.15;;;;;;;16.17;94.53;101437.33;2970951;80;21348;-81
2021/10/07 16:19:46;;;;;;;53.73;40.08;;;;;;;16.17;94.51;101438.67;2970575;80;21055;-78
2021/10/07 16:23:48;;;;;;;57.83;41.30;;;;;;;16.20;94.28;101436.55;2970597;80;20989;-81
2021/10/07 16:27:50;;;;;;;64.00;42.83;;;;;;;16.19;94.24;101438.88;2967681;79;21036;-79
2021/10/07 16:31:53;;;;;;;55.85;41.95;;;;;;;16.20;94.01;101439.23;2955802;80;21013;-78
2021/10/07 16:35:56;;;;;;;65.32;41.00;;;;;;;16.15;94.28;101451.39;2956299;80;21048;-79
2021/10/07 16:39:59;;;;;;;61.37;42.25;;;;;;;16.12;94.66;101450.67;2956450;80;21485;-81
2021/10/07 16:44:01;;;;;;;59.13;44.10;;;;;;;16.17;94.91;101458.30;2910150;80;21044;-75
2021/10/07 16:48:03;;;;;;;59.98;42.60;;;;;;;16.22;94.89;101458.77;2910912;80;21023;-73
2021/10/07 16:52:05;;;;;;;58.58;41.48;;;;;;;16.27;94.69;101461.03;2911008;80;21072;-74
2021/10/07 16:56:10;;;;;;;58.55;41.42;;;;;;;16.33;94.37;101466.36;2945325;80;20969;-73
2021/10/07 17:00:13;;;;;;;63.05;39.92;;;;;;;16.32;93.26;101469.55;2868811;82;21055;-72
2021/10/07 17:04:15;;;;;;;69.20;46.55;;;;;;;16.25;92.70;101477.77;2916602;80;20984;-74
2021/10/07 17:08:17;;;;;;;52.25;39.18;;;;;;;16.20;92.76;101482.70;2905467;82;21064;-72
2021/10/07 17:12:19;;;;;;;57.73;39.80;;;;;;;16.20;92.67;101483.53;2954433;80;21001;-72
2021/10/07 17:16:21;;;;;;;57.98;40.52;;;;;;;16.19;92.01;101490.39;2956877;80;20934;-74
2021/10/07 17:20:22;;;;;;;53.33;40.08;;;;;;;16.11;91.17;101483.86;2956576;80;21068;-73
2021/10/07 17:24:24;;;;;;;56.70;40.00;;;;;;;16.08;91.22;101488.13;2956769;79;21713;-74
2021/10/07 17:28:26;;;;;;;65.92;42.65;;;;;;;16.04;91.03;101485.36;2956779;77;20995;-74
2021/10/07 17:32:28;;;;;;;60.70;40.52;;;;;;;16.02;91.03;101486.49;2956983;80;21261;-73
2021/10/07 17:36:29;;;;;;;60.45;40.35;;;;;;;15.98;91.24;101493.44;2956886;80;22201;-72
2021/10/07 17:40:33;;;;;;;62.48;38.98;;;;;;;16.00;90.99;101491.98;2956469;79;21048;-74
2021/10/07 17:44:35;;;;;;;51.45;39.38;;;;;;;15.99;90.93;101499.67;2955914;80;21055;-73
2021/10/07 17:48:37;;;;;;;63.25;43.17;;;;;;;15.96;91.02;101498.09;2956730;80;20977;-74
2021/10/07 17:52:43;;;;;;;61.00;40.88;;;;;;;15.96;91.09;101498.59;2956589;77;21040;-74
2021/10/07 17:56:45;;;;;;;53.40;38.08;;;;;;;15.95;91.10;101495.56;2956151;80;21032;-73
2021/10/07 18:00:47;;;;;;;64.37;42.88;;;;;;;15.90;90.66;101499.97;2956049;80;21063;-71
2021/10/07 18:04:48;;;;;;;52.83;38.05;;;;;;;15.81;90.74;101497.55;2956434;79;21001;-74
2021/10/07 18:08:51;;;;;;;53.73;38.80;;;;;;;15.80;90.83;101499.87;2956924;77;20988;-72
2021/10/07 18:12:55;;;;;;;58.17;40.12;;;;;;;15.76;90.35;101502.46;2957238;79;21001;-71
2021/10/07 18:16:59;;;;;;;55.30;38.53;;;;;;;15.69;90.20;101507.48;2956666;80;21076;-73
2021/10/07 18:21:03;;;;;;;55.98;38.25;;;;;;;15.61;90.46;101507.77;2956369;77;21052;-73
2021/10/07 18:25:07;;;;;;;55.45;39.27;;;;;;;15.54;90.75;101510.98;2956981;77;21076;-73
2021/10/07 18:29:12;;;;;;;52.15;38.20;;;;;;;15.48;90.91;101507.45;2891407;77;73102;-60
2021/10/07 18:33:16;;;;;;;59.48;42.27;;;;;;;15.42;91.34;101510.14;2869147;82;21052;-61
2021/10/07 18:37:25;;;;;;;67.82;40.58;;;;;;;15.36;91.52;101513.34;2929787;81;21525;-61
2021/10/07 18:41:27;;;;;;;77.37;43.40;;;;;;;15.32;91.88;101516.40;2930084;81;20995;-62
2021/10/07 18:45:42;;;;;;;67.50;40.43;;;;;;;15.27;92.14;101518.97;2929639;81;20981;-60
2021/10/07 18:49:47;;;;;;;68.55;42.67;;;;;;;15.23;92.43;101516.19;2929977;80;21047;-61
2021/10/07 18:53:49;;;;;;;76.85;45.63;;;;;;;15.19;92.62;101517.43;2869107;83;21001;-61
2021/10/07 18:57:57;;;;;;;75.32;43.92;;;;;;;15.17;92.93;101523.88;2930223;81;20968;-60
2021/10/07 19:01:59;;;;;;;81.32;46.48;;;;;;;15.13;93.21;101520.12;2868317;83;21033;-60
2021/10/07 19:06:04;;;;;;;61.98;42.17;;;;;;;15.10;93.32;101518.16;2930329;81;21035;-60
2021/10/07 19:10:09;;;;;;;69.40;41.92;;;;;;;15.06;93.39;101517.59;2930044;80;21011;-62
2021/10/07 19:14:13;;;;;;;64.77;40.30;;;;;;;15.04;93.71;101516.00;2929903;81;20925;-62
2021/10/07 19:18:17;;;;;;;60.92;42.30;;;;;;;15.02;93.90;101520.63;2929531;81;20973;-62
2021/10/07 19:22:19;;;;;;;73.07;43.23;;;;;;;15.01;94.07;101522.45;2929920;81;20968;-62
2021/10/07 19:26:23;;;;;;;72.75;42.40;;;;;;;15.01;94.16;101525.63;2929894;81;21040;-62
2021/10/07 19:30:29;;;;;;;66.82;41.35;;;;;;;14.99;94.35;101523.06;2844346;82;21055;-63
2021/10/07 19:34:32;;;;;;;;;;;;;;;14.99;94.27;101525.73;2884073;82;21431;-62
2021/10/07 19:38:33;;;;;;;55.52;39.00;;;;;;;14.97;94.25;101528.56;2881378;82;20105;-62
2021/10/07 19:42:36;;;;;;;53.83;38.90;;;;;;;14.96;94.28;101525.99;2881169;82;21030;-63
2021/10/07 19:46:51;;;;;;;63.68;41.08;;;;;;;14.94;94.44;101523.45;2880937;82;21004;-62
2021/10/07 19:50:54;;;;;;;61.40;39.47;;;;;;;14.94;94.66;101528.81;2881471;82;20987;-62
2021/10/07 19:55:00;;;;;;;58.52;39.85;;;;;;;14.93;94.91;101527.08;2881424;82;20991;-62
2021/10/07 19:59:02;;;;;;;54.13;35.20;;;;;;;14.90;95.27;101531.35;2881297;82;20940;-62
2021/10/07 20:03:04;;;;;;;57.23;36.30;;;;;;;14.83;95.47;101526.14;2881171;82;21554;-62
2021/10/07 20:07:06;;;;;;;57.67;39.27;;;;;;;14.76;95.97;101527.62;2881382;82;20995;-62